Venice, California
Current Conditions -  °F | °C
As of 7:51 PM on Sunday 23 Nov 2014 (Local Time) from KSMO Reporting Station
Clear Clear  
Wind Chill: 71°   Ceiling: Unl
Heat Index: 71°   Visibility: 10mi
Dew Point:   Wind: 7mph
Humidity: 8%   Direction: 360°N
Pressure: 30.12"   Gusts: NA
Location:  33.99°N, 118.46°W
Report Text: KSMO 240351Z 36006KT 10SM CLR 22/M14 A3012 RMK AO2 SLP196 T02171144 $
Loading
Personal Weather Stations






























Interactive Weather Map New forecast layout! Learn more

10-Day Weather Forecast

Advertisements
Track Severe Weather on mobile